Time;durP1;ratioP1;P1;durP2;ratioP2;P2;SDS_P1;SDS_P2;PMS_P1;PMS_P2;Temp;Humidity;BMP_temperature;BMP_pressure;BME280_temperature;BME280_humidity;BME280_pressure;Samples;Min_cycle;Max_cycle;Signal;HPM_P1;HPM_P2
2023/03/21 00:00:58;;;;;;;9.10;4.75;;;13.80;60.30;;;;;;5050887;28;20040;-49
2023/03/21 00:03:25;;;;;;;12.32;5.07;;;13.80;61.00;;;;;;5046943;28;20041;-51
2023/03/21 00:05:54;;;;;;;8.27;4.95;;;13.80;60.40;;;;;;5046949;28;20040;-50
2023/03/21 00:08:28;;;;;;;9.70;5.18;;;13.80;60.40;;;;;;5051064;28;20048;-51
2023/03/21 00:11:01;;;;;;;9.68;5.32;;;13.80;60.50;;;;;;5048982;28;20437;-50
2023/03/21 00:13:32;;;;;;;13.38;5.45;;;13.80;60.50;;;;;;5045882;28;20493;-50
2023/03/21 00:16:16;;;;;;;11.02;5.50;;;13.80;60.70;;;;;;5050524;28;20047;-51
2023/03/21 00:19:02;;;;;;;7.15;5.22;;;13.80;60.70;;;;;;5051249;28;20465;-51
2023/03/21 00:21:37;;;;;;;9.88;5.53;;;13.80;60.60;;;;;;5045505;28;20044;-52
2023/03/21 00:24:24;;;;;;;9.15;5.45;;;13.80;60.60;;;;;;5043363;28;20037;-51
2023/03/21 00:26:53;;;;;;;8.02;4.63;;;13.80;60.70;;;;;;5050526;28;20103;-55
2023/03/21 00:29:30;;;;;;;11.85;5.78;;;13.80;60.70;;;;;;5051642;28;20082;-50
2023/03/21 00:32:02;;;;;;;8.98;5.32;;;13.80;60.70;;;;;;5048957;28;20052;-49
2023/03/21 00:34:34;;;;;;;10.57;5.95;;;13.80;60.80;;;;;;5049717;28;20044;-50
2023/03/21 00:37:17;;;;;;;7.53;5.03;;;13.80;60.80;;;;;;5049586;28;20099;-50
2023/03/21 00:39:53;;;;;;;10.98;5.75;;;13.80;60.90;;;;;;5047387;28;20513;-49
2023/03/21 00:42:22;;;;;;;10.68;5.78;;;13.80;60.90;;;;;;5044263;28;20049;-52
2023/03/21 00:44:49;;;;;;;9.65;5.88;;;13.80;60.90;;;;;;5048581;28;20136;-47
2023/03/21 00:47:16;;;;;;;13.25;6.40;;;13.80;61.00;;;;;;5049447;28;20029;-51
2023/03/21 00:49:48;;;;;;;9.95;5.63;;;13.80;61.10;;;;;;5046116;28;20037;-47
2023/03/21 00:52:14;;;;;;;13.85;6.28;;;13.80;61.10;;;;;;5044239;28;20417;-51
2023/03/21 00:54:56;;;;;;;12.13;6.05;;;13.80;61.20;;;;;;5037921;28;20042;-48
2023/03/21 00:57:23;;;;;;;9.75;6.22;;;13.70;61.10;;;;;;5046241;28;20048;-48
2023/03/21 01:00:08;;;;;;;11.30;6.20;;;13.70;61.20;;;;;;5047710;28;20109;-50
2023/03/21 01:02:55;;;;;;;8.10;6.15;;;13.70;61.20;;;;;;5049033;28;20057;-52
2023/03/21 01:08:27;;;;;;;8.25;5.95;;;13.70;61.60;;;;;;5057142;28;20041;-53
2023/03/21 01:11:11;;;;;;;10.80;6.72;;;13.70;61.40;;;;;;5061302;28;20044;-47
2023/03/21 01:13:46;;;;;;;10.98;6.07;;;13.70;61.90;;;;;;5044972;28;20037;-52
2023/03/21 01:16:25;;;;;;;7.60;5.70;;;13.70;61.70;;;;;;5061537;28;20075;-48
2023/03/21 01:19:05;;;;;;;12.77;6.97;;;13.70;61.70;;;;;;5049628;28;20714;-49
2023/03/21 01:21:43;;;;;;;12.70;5.65;;;13.60;61.90;;;;;;5039179;28;20041;-49
2023/03/21 01:24:11;;;;;;;12.57;6.70;;;13.60;62.00;;;;;;5048540;28;20694;-48
2023/03/21 01:26:40;;;;;;;11.13;7.00;;;13.60;62.10;;;;;;5049671;28;20041;-48
2023/03/21 01:29:10;;;;;;;10.65;6.05;;;13.60;62.30;;;;;;5046201;28;20041;-48
2023/03/21 01:31:37;;;;;;;13.98;7.10;;;13.60;62.20;;;;;;5048814;28;20080;-48
2023/03/21 01:34:07;;;;;;;10.52;6.65;;;13.60;62.30;;;;;;5047667;28;20087;-49
2023/03/21 01:36:36;;;;;;;11.80;6.90;;;13.60;62.40;;;;;;5048785;28;20080;-52
2023/03/21 01:39:15;;;;;;;12.55;6.50;;;13.60;62.40;;;;;;5044048;28;20052;-51
2023/03/21 01:41:44;;;;;;;13.27;7.40;;;13.60;62.40;;;;;;5064625;28;20160;-48
2023/03/21 01:44:22;;;;;;;7.75;6.00;;;13.50;63.10;;;;;;5046443;28;20049;-52
2023/03/21 01:46:56;;;;;;;9.98;5.75;;;13.50;62.50;;;;;;5046693;28;20040;-53
2023/03/21 01:49:52;;;;;;;9.10;6.20;;;13.50;62.60;;;;;;5043200;28;20329;-49
2023/03/21 01:52:34;;;;;;;14.75;6.70;;;13.50;62.70;;;;;;5043779;28;20120;-49
2023/03/21 01:55:20;;;;;;;9.45;5.60;;;13.40;63.00;;;;;;5044319;28;20052;-47
2023/03/21 01:58:03;;;;;;;10.20;6.18;;;13.40;62.70;;;;;;5042855;28;20156;-49
2023/03/21 02:00:52;;;;;;;11.60;6.47;;;13.40;62.70;;;;;;5048672;28;20053;-50
2023/03/21 02:03:36;;;;;;;9.07;5.95;;;13.30;62.70;;;;;;5043001;28;20045;-51
2023/03/21 02:06:30;;;;;;;13.25;5.82;;;13.20;62.80;;;;;;5046844;28;20075;-50
2023/03/21 02:09:08;;;;;;;10.57;6.40;;;13.20;63.20;;;;;;5047075;28;20049;-49
2023/03/21 02:11:36;;;;;;;7.80;5.35;;;13.20;63.00;;;;;;5043940;28;20476;-48
2023/03/21 02:14:04;;;;;;;8.00;5.35;;;13.10;63.10;;;;;;5060956;28;20105;-51
2023/03/21 02:17:09;;;;;;;9.70;6.25;;;13.10;63.30;;;;;;5047345;28;20071;-48
2023/03/21 02:19:53;;;;;;;7.93;5.90;;;13.10;63.60;;;;;;5042005;28;20049;-52
2023/03/21 02:22:39;;;;;;;9.20;5.97;;;13.00;63.60;;;;;;5046818;28;20048;-50
2023/03/21 02:25:20;;;;;;;7.85;6.03;;;13.00;64.10;;;;;;5047554;28;20095;-50
2023/03/21 02:27:58;;;;;;;8.45;5.72;;;13.00;64.40;;;;;;5047115;28;20045;-49
2023/03/21 02:30:48;;;;;;;10.52;6.53;;;13.00;64.40;;;;;;5056980;28;20090;-48
2023/03/21 02:33:55;;;;;;;8.23;5.55;;;13.00;64.80;;;;;;5063890;28;20447;-52
2023/03/21 02:36:52;;;;;;;9.00;5.88;;;13.00;64.80;;;;;;5034736;28;20448;-53
2023/03/21 02:39:38;;;;;;;10.68;6.05;;;13.00;64.90;;;;;;5042247;28;20046;-50
2023/03/21 02:42:27;;;;;;;10.65;6.63;;;13.00;64.60;;;;;;5047825;28;20123;-53
2023/03/21 02:45:08;;;;;;;9.70;6.15;;;13.00;65.00;;;;;;5046629;28;20052;-49
2023/03/21 02:48:08;;;;;;;13.30;6.22;;;13.00;64.80;;;;;;5043983;28;20045;-50
2023/03/21 02:50:50;;;;;;;11.45;6.03;;;13.00;65.20;;;;;;5040447;28;20040;-51
2023/03/21 02:53:21;;;;;;;9.43;6.80;;;13.00;64.80;;;;;;5046529;28;20131;-48
2023/03/21 02:55:53;;;;;;;8.75;5.60;;;13.00;64.90;;;;;;5043733;28;20510;-52
2023/03/21 02:58:24;;;;;;;10.07;6.10;;;13.00;64.90;;;;;;5046992;28;20132;-49
2023/03/21 03:00:59;;;;;;;9.63;5.93;;;13.00;65.00;;;;;;5047510;28;20071;-48
2023/03/21 03:03:41;;;;;;;10.27;5.85;;;13.10;64.90;;;;;;5045999;28;20463;-48
2023/03/21 03:06:21;;;;;;;7.45;5.13;;;13.10;64.90;;;;;;5046191;28;20134;-49
2023/03/21 03:09:03;;;;;;;12.13;5.97;;;13.10;65.30;;;;;;5047623;28;20045;-49
2023/03/21 03:11:35;;;;;;;10.75;5.80;;;13.10;65.20;;;;;;5047620;28;20041;-51
2023/03/21 03:14:11;;;;;;;9.85;5.35;;;13.20;64.90;;;;;;5046543;28;20045;-51
2023/03/21 03:17:21;;;;;;;9.85;5.65;;;13.20;64.90;;;;;;5060626;28;20051;-50
2023/03/21 03:20:16;;;;;;;8.15;5.03;;;13.20;64.90;;;;;;5045419;28;20049;-48
2023/03/21 03:23:10;;;;;;;8.93;5.60;;;13.20;65.30;;;;;;5051846;28;20053;-51
2023/03/21 03:25:52;;;;;;;10.23;5.38;;;13.30;65.00;;;;;;5063993;28;20068;-50
2023/03/21 03:28:26;;;;;;;9.32;5.57;;;13.30;65.00;;;;;;5046512;28;20045;-51
2023/03/21 03:30:58;;;;;;;7.65;5.72;;;13.30;64.80;;;;;;5045284;28;20041;-49
2023/03/21 03:33:50;;;;;;;9.15;6.03;;;13.30;64.80;;;;;;5067487;28;20123;-51
2023/03/21 03:36:19;;;;;;;11.18;5.82;;;13.30;65.00;;;;;;5049227;28;20060;-50
2023/03/21 03:39:09;;;;;;;8.63;6.25;;;13.30;65.20;;;;;;5045840;28;20049;-48
2023/03/21 03:41:59;;;;;;;8.82;6.22;;;13.30;65.40;;;;;;5044288;28;20441;-50
2023/03/21 03:44:50;;;;;;;6.68;5.03;;;13.40;66.00;;;;;;5050194;28;20044;-49
2023/03/21 03:47:45;;;;;;;7.97;5.20;;;13.40;65.80;;;;;;5046489;28;20033;-50
2023/03/21 03:50:49;;;;;;;9.13;5.63;;;13.40;67.00;;;;;;5062901;28;20111;-50
2023/03/21 03:53:35;;;;;;;12.07;6.20;;;13.40;67.00;;;;;;5064545;28;20426;-50
2023/03/21 03:56:08;;;;;;;11.13;5.90;;;13.30;66.40;;;;;;5050285;28;20068;-49
2023/03/21 03:58:40;;;;;;;9.17;5.77;;;13.30;66.40;;;;;;5042636;28;20045;-49
2023/03/21 04:01:14;;;;;;;10.90;6.38;;;13.30;67.20;;;;;;5050406;28;20095;-49
2023/03/21 04:03:50;;;;;;;8.32;5.70;;;13.30;66.40;;;;;;5047893;28;20527;-51
2023/03/21 04:06:37;;;;;;;8.73;5.55;;;13.30;66.60;;;;;;5050170;28;20037;-48
2023/03/21 04:09:07;;;;;;;8.38;5.55;;;13.30;66.70;;;;;;5049310;28;20041;-50
2023/03/21 04:11:49;;;;;;;6.82;5.05;;;13.20;66.60;;;;;;5050025;28;20074;-49
2023/03/21 04:14:18;;;;;;;11.48;5.82;;;13.20;66.50;;;;;;5047070;28;20069;-52
2023/03/21 04:16:51;;;;;;;7.65;5.68;;;13.20;66.70;;;;;;5049526;28;20068;-49
2023/03/21 04:19:23;;;;;;;9.77;6.05;;;13.20;66.80;;;;;;5049959;28;20117;-48
2023/03/21 04:21:58;;;;;;;10.60;7.22;;;13.20;66.80;;;;;;5044508;28;20041;-52
2023/03/21 04:24:32;;;;;;;9.77;6.30;;;13.20;67.20;;;;;;5049024;28;20041;-48
2023/03/21 04:27:02;;;;;;;8.50;5.93;;;13.20;67.20;;;;;;5051464;28;20672;-50
2023/03/21 04:29:42;;;;;;;10.95;6.13;;;13.20;67.10;;;;;;5041865;28;20067;-50
2023/03/21 04:32:38;;;;;;;10.75;6.15;;;13.20;67.10;;;;;;5050117;28;20044;-52
2023/03/21 04:35:10;;;;;;;9.40;6.50;;;13.10;67.20;;;;;;5048450;28;20409;-48
2023/03/21 04:37:38;;;;;;;9.85;5.57;;;13.10;67.20;;;;;;5048128;28;20045;-48
2023/03/21 04:40:10;;;;;;;10.68;6.75;;;13.10;67.30;;;;;;5048902;28;20045;-49
2023/03/21 04:42:38;;;;;;;8.82;6.53;;;13.10;67.50;;;;;;5051145;28;20049;-50
2023/03/21 04:45:09;;;;;;;12.32;5.90;;;13.10;67.60;;;;;;5042572;28;20510;-49
2023/03/21 04:47:36;;;;;;;11.48;6.53;;;13.10;67.60;;;;;;5050730;28;20045;-49
2023/03/21 04:50:09;;;;;;;10.23;5.95;;;13.10;67.70;;;;;;5048258;28;20501;-48
2023/03/21 04:52:36;;;;;;;9.45;5.72;;;13.10;67.90;;;;;;5044360;28;20510;-52
2023/03/21 04:55:08;;;;;;;12.30;6.05;;;13.10;67.80;;;;;;5047260;28;20060;-48
2023/03/21 04:57:38;;;;;;;6.72;5.50;;;13.10;67.80;;;;;;5040632;28;20075;-52
2023/03/21 05:00:12;;;;;;;9.10;5.50;;;13.10;68.00;;;;;;5048271;28;20087;-49
2023/03/21 05:02:49;;;;;;;8.02;5.68;;;13.10;68.00;;;;;;5048845;28;20049;-48
2023/03/21 05:05:15;;;;;;;10.30;5.90;;;13.10;68.40;;;;;;5044627;28;20049;-47
2023/03/21 05:07:45;;;;;;;9.02;7.00;;;13.10;68.10;;;;;;5050092;28;20116;-49
2023/03/21 05:10:15;;;;;;;10.63;6.20;;;13.00;68.10;;;;;;5047538;28;20051;-49
2023/03/21 05:12:42;;;;;;;7.90;5.82;;;13.00;68.20;;;;;;5048634;28;20132;-49
2023/03/21 05:15:09;;;;;;;9.93;6.45;;;13.10;68.20;;;;;;5049818;28;20045;-48
2023/03/21 05:17:36;;;;;;;9.07;5.75;;;13.10;68.20;;;;;;5063871;28;20060;-50
2023/03/21 05:20:11;;;;;;;11.10;6.65;;;13.10;68.30;;;;;;5044630;28;20060;-48
2023/03/21 05:22:41;;;;;;;;;;;13.10;68.30;;;;;;5042438;28;20045;-48
2023/03/21 05:25:12;;;;;;;7.53;4.93;;;13.10;68.60;;;;;;5044342;28;19937;-49
2023/03/21 05:28:00;;;;;;;7.65;5.50;;;13.10;67.80;;;;;;5047171;28;20041;-49
2023/03/21 05:30:31;;;;;;;8.45;6.00;;;13.10;67.90;;;;;;5046187;28;20055;-48
2023/03/21 05:33:00;;;;;;;10.15;5.70;;;13.10;67.90;;;;;;5063544;28;20506;-49
2023/03/21 05:35:27;;;;;;;8.82;5.57;;;13.10;68.00;;;;;;5046810;28;20032;-53
2023/03/21 05:37:57;;;;;;;10.05;5.47;;;13.10;68.10;;;;;;5043946;28;20419;-53
2023/03/21 05:40:31;;;;;;;8.18;5.47;;;13.10;68.20;;;;;;5043053;28;20052;-48
2023/03/21 05:42:59;;;;;;;8.50;5.22;;;13.10;68.20;;;;;;5043630;28;20091;-49
2023/03/21 05:45:26;;;;;;;8.75;5.40;;;13.10;68.20;;;;;;5047614;28;20047;-51
2023/03/21 05:47:54;;;;;;;9.07;5.43;;;13.00;68.30;;;;;;5024705;28;20096;-50
2023/03/21 05:50:25;;;;;;;13.25;6.45;;;13.00;68.20;;;;;;5044178;28;20052;-49
2023/03/21 05:53:07;;;;;;;14.27;5.53;;;13.00;68.40;;;;;;5040967;28;20107;-47
2023/03/21 05:55:35;;;;;;;8.52;6.32;;;13.10;68.40;;;;;;5045748;28;20045;-48
2023/03/21 05:58:04;;;;;;;10.63;5.55;;;13.10;68.60;;;;;;5060207;28;20049;-50
2023/03/21 06:00:31;;;;;;;9.75;5.75;;;13.10;68.80;;;;;;5043450;28;20048;-53
2023/03/21 06:03:21;;;;;;;6.53;4.95;;;13.10;68.90;;;;;;5040339;28;20528;-49
2023/03/21 06:06:14;;;;;;;11.15;5.53;;;13.10;68.80;;;;;;5038016;28;20056;-52
2023/03/21 06:09:01;;;;;;;11.85;5.68;;;13.10;68.80;;;;;;5038474;28;20073;-49
2023/03/21 06:11:36;;;;;;;9.98;5.85;;;13.10;68.70;;;;;;5043949;28;20095;-51
2023/03/21 06:14:30;;;;;;;11.30;5.20;;;13.20;69.10;;;;;;5042616;28;20051;-49
2023/03/21 06:17:13;;;;;;;8.70;6.05;;;13.20;68.80;;;;;;5045778;28;20055;-48
2023/03/21 06:19:45;;;;;;;10.23;5.40;;;13.20;68.70;;;;;;5038341;28;20527;-50
2023/03/21 06:22:18;;;;;;;8.07;4.85;;;13.20;68.60;;;;;;5040503;28;20079;-50
2023/03/21 06:24:44;;;;;;;9.05;5.65;;;13.20;68.50;;;;;;5047307;28;20048;-48
2023/03/21 06:27:11;;;;;;;8.30;4.57;;;13.20;68.60;;;;;;5046747;28;20506;-48
2023/03/21 06:29:53;;;;;;;7.07;4.90;;;13.30;68.40;;;;;;5043521;28;20122;-48
2023/03/21 06:32:21;;;;;;;10.48;4.70;;;13.30;68.20;;;;;;5046140;28;20144;-53
2023/03/21 06:34:53;;;;;;;8.95;5.45;;;13.30;68.20;;;;;;5045924;28;20513;-52
2023/03/21 06:37:20;;;;;;;8.15;4.68;;;13.30;68.30;;;;;;5045720;28;20048;-48
2023/03/21 06:39:46;;;;;;;6.55;4.70;;;13.30;68.40;;;;;;5061443;28;20055;-48
2023/03/21 06:42:14;;;;;;;9.15;4.45;;;13.30;68.50;;;;;;5040269;28;20417;-48
2023/03/21 06:44:41;;;;;;;11.27;4.80;;;13.30;68.60;;;;;;5059527;28;20080;-51
2023/03/21 06:47:12;;;;;;;10.32;4.63;;;13.40;68.60;;;;;;5041305;28;20064;-49
2023/03/21 06:49:42;;;;;;;9.52;4.28;;;13.50;68.50;;;;;;5025936;28;20045;-50
2023/03/21 06:52:11;;;;;;;12.50;5.35;;;13.50;69.20;;;;;;5042724;28;20512;-50
2023/03/21 06:54:38;;;;;;;6.22;3.88;;;13.50;68.50;;;;;;5040401;28;20044;-52
2023/03/21 06:57:13;;;;;;;8.25;3.85;;;13.60;68.60;;;;;;5046044;28;20041;-50
2023/03/21 06:59:40;;;;;;;9.07;3.63;;;13.60;68.60;;;;;;5046544;28;20047;-49
2023/03/21 07:02:35;;;;;;;6.55;4.10;;;13.60;68.60;;;;;;5045970;28;20075;-47
2023/03/21 07:05:08;;;;;;;5.70;3.20;;;13.70;68.40;;;;;;5045339;28;20049;-49
2023/03/21 07:07:36;;;;;;;4.97;3.25;;;13.70;68.30;;;;;;5031598;28;20059;-48
2023/03/21 07:10:03;;;;;;;7.15;2.95;;;13.80;68.30;;;;;;5051479;28;20067;-48
2023/03/21 07:12:39;;;;;;;4.43;3.10;;;13.80;68.30;;;;;;5045706;28;20041;-48
2023/03/21 07:15:33;;;;;;;4.85;3.22;;;13.80;68.30;;;;;;5037517;28;20060;-52
2023/03/21 07:18:00;;;;;;;8.68;3.80;;;13.80;68.10;;;;;;5052197;28;20041;-53
2023/03/21 07:20:27;;;;;;;7.35;3.83;;;13.90;68.20;;;;;;5048443;28;20244;-53
2023/03/21 07:22:54;;;;;;;6.57;3.70;;;13.90;68.20;;;;;;5050817;28;20037;-48
2023/03/21 07:25:24;;;;;;;6.38;3.78;;;13.90;68.10;;;;;;5051274;28;20053;-52
2023/03/21 07:27:51;;;;;;;6.25;3.40;;;13.90;68.00;;;;;;5050718;28;20068;-52
2023/03/21 07:30:21;;;;;;;5.63;2.83;;;14.00;67.90;;;;;;5040946;28;20505;-51
2023/03/21 07:32:48;;;;;;;8.10;3.60;;;14.00;67.80;;;;;;5033500;28;20041;-51
2023/03/21 07:35:18;;;;;;;5.68;3.35;;;14.00;67.60;;;;;;5034267;28;20509;-51
2023/03/21 07:37:46;;;;;;;5.25;3.03;;;14.00;67.70;;;;;;5050487;28;20039;-53
2023/03/21 07:40:15;;;;;;;7.47;2.90;;;14.00;67.70;;;;;;5046494;28;20034;-52
2023/03/21 07:42:41;;;;;;;6.65;3.38;;;14.00;67.70;;;;;;5051171;28;20052;-52
2023/03/21 07:45:14;;;;;;;4.00;3.00;;;14.00;67.60;;;;;;5051125;28;20037;-52
2023/03/21 07:47:44;;;;;;;6.78;3.03;;;14.00;67.60;;;;;;5058292;28;20405;-48
2023/03/21 07:50:11;;;;;;;3.80;3.20;;;14.10;68.30;;;;;;5045431;28;20509;-49
2023/03/21 07:52:38;;;;;;;6.72;3.30;;;14.10;67.80;;;;;;5046118;28;20087;-49
2023/03/21 07:55:05;;;;;;;8.00;3.20;;;14.10;68.00;;;;;;5046694;28;20061;-51
2023/03/21 07:57:32;;;;;;;7.32;3.60;;;14.10;68.00;;;;;;5051635;28;20052;-48
2023/03/21 08:00:00;;;;;;;4.43;3.22;;;14.10;68.00;;;;;;5051956;28;20037;-53
2023/03/21 08:02:26;;;;;;;4.78;3.00;;;14.10;68.00;;;;;;5046943;28;20041;-48
2023/03/21 08:04:53;;;;;;;4.82;2.97;;;14.20;68.30;;;;;;5051976;28;20037;-49
2023/03/21 08:07:20;;;;;;;7.57;3.25;;;14.20;68.30;;;;;;5051982;28;20052;-49
2023/03/21 08:09:49;;;;;;;4.88;3.00;;;14.20;68.30;;;;;;5036676;28;20402;-51
2023/03/21 08:12:16;;;;;;;5.75;2.92;;;14.20;68.30;;;;;;5045888;28;20564;-50
2023/03/21 08:14:43;;;;;;;8.18;3.60;;;14.20;68.40;;;;;;5050256;28;20056;-49
2023/03/21 08:17:10;;;;;;;6.25;3.50;;;14.20;68.30;;;;;;5050808;28;20553;-51
2023/03/21 08:19:36;;;;;;;6.28;3.28;;;14.20;68.30;;;;;;5051230;28;20505;-51
2023/03/21 08:22:05;;;;;;;4.03;2.70;;;14.30;69.00;;;;;;5043065;28;20120;-49
2023/03/21 08:24:39;;;;;;;6.93;3.60;;;14.30;68.30;;;;;;5050894;28;20043;-52
2023/03/21 08:27:06;;;;;;;6.03;3.47;;;14.30;68.60;;;;;;5050684;28;20466;-52
2023/03/21 08:29:39;;;;;;;6.10;3.67;;;14.30;68.60;;;;;;5051622;28;20045;-52
2023/03/21 08:32:05;;;;;;;5.72;3.75;;;14.40;68.80;;;;;;5048149;28;20047;-49
2023/03/21 08:34:32;;;;;;;8.10;3.45;;;14.40;68.70;;;;;;5050493;28;20119;-48
2023/03/21 08:37:00;;;;;;;6.32;3.63;;;14.50;68.60;;;;;;5050770;28;20045;-50
2023/03/21 08:39:27;;;;;;;5.68;4.13;;;14.50;68.60;;;;;;5043457;28;20046;-48
2023/03/21 08:41:53;;;;;;;6.18;3.38;;;14.50;68.70;;;;;;5051324;28;20045;-48
2023/03/21 08:44:24;;;;;;;5.10;2.78;;;14.60;68.90;;;;;;5050607;28;20048;-47
2023/03/21 08:46:50;;;;;;;6.25;3.88;;;14.60;68.70;;;;;;5050512;28;20405;-51
2023/03/21 08:49:17;;;;;;;5.20;3.50;;;14.70;68.50;;;;;;5047478;28;20599;-49
2023/03/21 08:51:44;;;;;;;3.47;2.88;;;14.70;68.60;;;;;;5041476;28;20041;-49
2023/03/21 08:54:23;;;;;;;6.30;3.08;;;14.80;68.60;;;;;;5045432;28;20044;-51
2023/03/21 08:56:50;;;;;;;5.70;3.20;;;14.90;68.70;;;;;;5049830;28;20041;-49
2023/03/21 08:59:17;;;;;;;4.32;3.40;;;14.90;68.40;;;;;;5051216;28;20418;-53
2023/03/21 09:01:44;;;;;;;6.13;3.47;;;15.00;68.10;;;;;;5051130;28;20539;-49
2023/03/21 09:04:11;;;;;;;5.05;3.28;;;15.00;67.90;;;;;;5042641;28;20055;-53
2023/03/21 09:06:47;;;;;;;4.72;3.20;;;15.00;67.70;;;;;;5050061;28;20040;-52
2023/03/21 09:09:15;;;;;;;6.60;3.30;;;15.10;67.80;;;;;;5051131;28;20041;-52
2023/03/21 09:11:42;;;;;;;4.38;3.25;;;15.10;67.50;;;;;;5046145;28;20375;-51
2023/03/21 09:14:11;;;;;;;6.53;3.58;;;15.20;67.70;;;;;;5050922;28;20450;-53
2023/03/21 09:16:37;;;;;;;5.25;3.08;;;15.20;67.70;;;;;;5050285;28;20072;-50
2023/03/21 09:19:07;;;;;;;6.72;3.72;;;15.20;67.50;;;;;;5050541;28;20047;-53
2023/03/21 09:21:34;;;;;;;7.90;3.67;;;15.30;67.20;;;;;;5042990;28;20068;-53
2023/03/21 09:24:01;;;;;;;6.28;3.42;;;15.30;67.20;;;;;;5049828;28;20060;-53
2023/03/21 09:26:28;;;;;;;5.43;3.30;;;15.30;67.20;;;;;;5050599;28;20032;-50
2023/03/21 09:28:55;;;;;;;5.65;3.00;;;15.30;67.30;;;;;;5048763;28;20037;-48
2023/03/21 09:31:22;;;;;;;7.10;3.50;;;15.30;67.40;;;;;;5047476;28;20041;-52
2023/03/21 09:33:50;;;;;;;9.05;3.17;;;15.30;67.20;;;;;;5049420;28;20497;-50
2023/03/21 09:36:20;;;;;;;7.85;3.00;;;15.30;66.90;;;;;;5049141;28;20037;-52
2023/03/21 09:38:48;;;;;;;3.97;2.92;;;15.30;66.70;;;;;;5048064;28;20047;-52
2023/03/21 09:41:37;;;;;;;4.38;2.88;;;15.30;66.80;;;;;;5045739;28;20032;-48
2023/03/21 09:44:23;;;;;;;4.40;3.22;;;15.30;67.10;;;;;;5043256;28;20116;-48
2023/03/21 09:47:20;;;;;;;4.22;2.78;;;15.20;67.20;;;;;;5048968;28;20041;-53
2023/03/21 09:49:53;;;;;;;4.50;2.97;;;15.20;67.60;;;;;;5046577;28;20524;-49
2023/03/21 09:52:44;;;;;;;5.45;2.67;;;15.20;67.60;;;;;;5045477;28;20502;-52
2023/03/21 09:55:23;;;;;;;5.05;3.05;;;15.20;68.10;;;;;;5043506;28;20033;-50
2023/03/21 09:58:06;;;;;;;3.45;2.42;;;15.30;68.80;;;;;;5048550;28;20040;-50
2023/03/21 10:00:39;;;;;;;5.60;2.88;;;15.30;68.80;;;;;;5050288;28;20210;-49
2023/03/21 10:03:23;;;;;;;5.25;2.97;;;15.40;68.90;;;;;;5049383;28;20044;-51
2023/03/21 10:05:59;;;;;;;4.40;3.17;;;15.50;68.60;;;;;;5047553;28;20041;-47
2023/03/21 10:08:35;;;;;;;4.18;2.40;;;15.60;68.70;;;;;;5049340;28;20779;-51
2023/03/21 10:11:12;;;;;;;5.13;3.03;;;15.70;68.80;;;;;;5041984;28;20037;-52
2023/03/21 10:13:48;;;;;;;6.68;3.17;;;15.80;68.50;;;;;;5041357;28;20045;-48
2023/03/21 10:16:20;;;;;;;5.75;2.75;;;15.90;68.30;;;;;;5049537;28;20037;-51
2023/03/21 10:18:50;;;;;;;4.38;2.38;;;16.00;67.70;;;;;;5048942;28;20049;-48
2023/03/21 10:21:38;;;;;;;9.63;2.80;;;16.10;67.60;;;;;;5041947;28;20523;-51
2023/03/21 10:24:27;;;;;;;4.70;2.63;;;16.20;67.10;;;;;;5045116;28;20045;-51
2023/03/21 10:26:55;;;;;;;5.10;2.75;;;16.20;66.80;;;;;;5048526;28;20044;-49
2023/03/21 10:29:35;;;;;;;6.40;3.00;;;16.40;66.60;;;;;;5050052;28;20040;-50
2023/03/21 10:32:02;;;;;;;3.38;2.50;;;16.40;66.60;;;;;;5044021;28;20044;-49
2023/03/21 10:34:36;;;;;;;6.93;3.50;;;16.40;66.70;;;;;;5048588;28;20056;-49
2023/03/21 10:37:04;;;;;;;7.25;3.92;;;16.50;66.50;;;;;;5047884;28;20037;-51
2023/03/21 10:39:48;;;;;;;5.47;3.67;;;16.50;66.50;;;;;;5046041;28;20083;-52
2023/03/21 10:42:35;;;;;;;6.32;3.05;;;16.60;66.30;;;;;;5052297;28;20048;-50
2023/03/21 10:45:02;;;;;;;6.30;2.58;;;16.70;65.80;;;;;;5053777;28;20037;-52
2023/03/21 10:47:33;;;;;;;7.15;3.83;;;16.80;65.60;;;;;;5034981;28;20053;-53
2023/03/21 10:50:05;;;;;;;6.25;2.95;;;16.80;65.20;;;;;;5050790;28;20033;-53
2023/03/21 10:52:41;;;;;;;4.60;3.25;;;16.90;65.00;;;;;;5048207;28;20041;-49
2023/03/21 10:55:30;;;;;;;5.10;2.58;;;16.90;64.70;;;;;;5047966;28;20037;-50
2023/03/21 10:58:07;;;;;;;2.90;2.60;;;16.90;64.40;;;;;;5044648;28;20120;-48
2023/03/21 11:00:37;;;;;;;4.63;2.38;;;16.90;63.80;;;;;;5052794;28;20457;-52
2023/03/21 11:03:04;;;;;;;4.53;2.80;;;16.90;63.90;;;;;;5050004;28;20525;-50
2023/03/21 11:05:38;;;;;;;3.80;2.10;;;16.90;64.00;;;;;;5049436;28;20039;-50
2023/03/21 11:08:14;;;;;;;3.80;2.60;;;16.90;64.50;;;;;;5053194;28;20099;-49
2023/03/21 11:10:54;;;;;;;9.35;3.70;;;16.90;63.40;;;;;;5052960;28;20124;-50
2023/03/21 11:13:35;;;;;;;3.15;2.03;;;16.90;63.20;;;;;;5048286;28;20044;-50
2023/03/21 11:16:16;;;;;;;5.35;2.47;;;16.90;62.90;;;;;;5045139;28;20033;-50
2023/03/21 11:18:49;;;;;;;4.18;2.40;;;16.90;62.90;;;;;;5050963;28;20049;-48
2023/03/21 11:21:16;;;;;;;4.78;2.42;;;16.90;62.60;;;;;;5046804;28;20051;-51
2023/03/21 11:23:46;;;;;;;3.47;2.45;;;16.90;62.70;;;;;;5048891;28;20060;-52
2023/03/21 11:26:26;;;;;;;3.70;2.65;;;17.00;62.10;;;;;;5051456;28;20067;-49
2023/03/21 11:28:53;;;;;;;5.20;2.00;;;17.00;62.30;;;;;;5051255;28;20406;-49
2023/03/21 11:31:23;;;;;;;2.95;1.85;;;17.00;61.80;;;;;;5049029;28;20048;-48
2023/03/21 11:33:58;;;;;;;4.20;2.22;;;17.00;61.70;;;;;;5047783;28;20041;-50
2023/03/21 11:36:39;;;;;;;3.20;1.85;;;17.10;60.90;;;;;;5051018;28;20044;-49
2023/03/21 11:39:32;;;;;;;3.00;1.95;;;17.10;59.80;;;;;;5041419;28;20048;-52
2023/03/21 11:41:58;;;;;;;;;;;17.10;59.90;;;;;;5043616;28;20426;-48
2023/03/21 11:44:32;;;;;;;3.30;1.75;;;17.10;60.70;;;;;;5051108;28;19924;-48
2023/03/21 11:46:59;;;;;;;4.28;2.17;;;17.10;60.00;;;;;;5038720;28;20072;-49
2023/03/21 11:49:27;;;;;;;3.38;2.13;;;17.10;60.00;;;;;;5049296;28;20413;-48
2023/03/21 11:52:08;;;;;;;3.75;2.42;;;17.00;59.90;;;;;;5044681;28;20045;-50
2023/03/21 11:54:56;;;;;;;2.72;1.80;;;17.00;59.10;;;;;;5040489;28;20060;-49
2023/03/21 11:57:43;;;;;;;3.60;2.08;;;17.00;59.80;;;;;;5051327;28;20065;-52
2023/03/21 12:00:22;;;;;;;2.95;2.20;;;17.00;60.50;;;;;;5044978;28;20069;-52
2023/03/21 12:03:01;;;;;;;2.55;1.70;;;17.10;60.30;;;;;;5044717;28;20057;-50
2023/03/21 12:05:34;;;;;;;2.10;1.90;;;17.10;59.90;;;;;;5046061;28;20060;-48
2023/03/21 12:08:13;;;;;;;4.65;2.30;;;17.20;59.70;;;;;;5044968;28;20083;-48
2023/03/21 12:10:56;;;;;;;3.15;2.00;;;17.30;59.40;;;;;;5047961;28;20771;-49
2023/03/21 12:13:49;;;;;;;3.15;2.25;;;17.40;59.30;;;;;;5049629;28;20087;-51
2023/03/21 12:16:24;;;;;;;4.38;1.85;;;17.50;57.50;;;;;;5045199;28;20037;-48
2023/03/21 12:19:47;;;;;;;3.25;2.08;;;17.50;57.30;;;;;;5052004;28;20053;-52
2023/03/21 12:22:51;;;;;;;2.10;1.75;;;17.60;57.30;;;;;;5017557;28;20049;-48
2023/03/21 12:25:27;;;;;;;2.95;1.98;;;17.60;56.80;;;;;;5044930;28;20674;-49
2023/03/21 12:28:07;;;;;;;2.95;1.73;;;17.60;57.30;;;;;;5051880;28;20500;-49
2023/03/21 12:30:46;;;;;;;2.50;2.10;;;17.60;57.30;;;;;;5047311;28;20052;-48
2023/03/21 12:33:47;;;;;;;2.80;1.80;;;17.70;57.00;;;;;;5045248;28;20037;-49
2023/03/21 12:36:40;;;;;;;4.07;1.90;;;17.80;57.20;;;;;;5049654;28;20037;-49
2023/03/21 12:39:19;;;;;;;2.80;2.30;;;17.90;56.60;;;;;;5043270;28;20131;-51
2023/03/21 12:42:08;;;;;;;2.40;1.77;;;18.00;56.90;;;;;;5050611;28;20041;-51
2023/03/21 12:44:50;;;;;;;3.50;1.80;;;18.10;55.80;;;;;;5048939;28;20052;-51
2023/03/21 12:47:23;;;;;;;4.38;1.65;;;18.20;56.20;;;;;;5049427;28;20440;-50
2023/03/21 12:50:03;;;;;;;4.20;2.47;;;18.30;55.90;;;;;;5050694;28;20044;-49
2023/03/21 12:52:39;;;;;;;3.08;2.05;;;18.40;55.00;;;;;;5043643;28;20059;-50
2023/03/21 12:55:20;;;;;;;2.97;2.03;;;18.40;54.50;;;;;;5037447;28;20041;-48
2023/03/21 12:58:13;;;;;;;3.90;1.95;;;18.50;55.20;;;;;;5051034;28;20037;-48
2023/03/21 13:00:47;;;;;;;3.72;2.00;;;18.50;54.80;;;;;;5059960;22;20080;-46
2023/03/21 13:03:20;;;;;;;2.65;1.95;;;18.60;54.90;;;;;;5050683;28;20041;-48
2023/03/21 13:06:03;;;;;;;2.40;1.65;;;18.70;54.70;;;;;;5059329;28;20040;-51
2023/03/21 13:08:55;;;;;;;5.00;1.95;;;18.80;54.80;;;;;;5051145;28;20029;-51
2023/03/21 13:11:26;;;;;;;2.45;2.03;;;18.80;53.50;;;;;;5044822;28;20033;-47
2023/03/21 13:13:58;;;;;;;3.30;1.90;;;18.90;53.60;;;;;;5041675;28;20054;-49
2023/03/21 13:16:49;;;;;;;3.28;2.20;;;19.00;53.20;;;;;;5050019;28;20427;-51
2023/03/21 13:19:40;;;;;;;2.25;1.88;;;19.00;52.90;;;;;;5040577;28;20441;-49
2023/03/21 13:22:21;;;;;;;2.88;2.33;;;19.10;52.10;;;;;;5040911;28;20048;-48
2023/03/21 13:24:54;;;;;;;3.80;2.10;;;19.10;52.00;;;;;;5043083;28;20048;-49
2023/03/21 13:27:26;;;;;;;2.10;1.67;;;19.20;52.50;;;;;;5050651;28;20051;-51
2023/03/21 13:30:13;;;;;;;;;;;19.30;52.10;;;;;;5049537;28;20048;-51
2023/03/21 13:32:45;;;;;;;2.78;1.65;;;19.40;53.70;;;;;;5024566;28;19925;-49